Time;durP1;ratioP1;P1;durP2;ratioP2;P2;SDS_P1;SDS_P2;PMS_P1;PMS_P2;Temp;Humidity;BMP_temperature;BMP_pressure;BME280_temperature;BME280_humidity;BME280_pressure;Samples;Min_cycle;Max_cycle;Signal;HPM_P1;HPM_P2
2022/08/03 00:01:46;;;;;;;0.70;0.70;;;;;19.80;96162.00;;;;5116711;28;20190;-51
2022/08/03 00:04:13;;;;;;;0.87;0.87;;;;;19.80;96155.00;;;;5116700;28;20222;-51
2022/08/03 00:06:40;;;;;;;0.40;0.40;;;;;19.60;96160.00;;;;5116633;28;20202;-55
2022/08/03 00:09:08;;;;;;;0.37;0.37;;;;;19.70;96161.00;;;;5116462;28;20570;-51
2022/08/03 00:11:35;;;;;;;0.73;0.73;;;;;19.60;96158.00;;;;5116589;28;20228;-53
2022/08/03 00:14:02;;;;;;;0.47;0.47;;;;;19.70;96148.00;;;;5116561;28;20263;-53
2022/08/03 00:16:31;;;;;;;0.83;0.83;;;;;19.60;96149.00;;;;5098720;28;20648;-52
2022/08/03 00:18:58;;;;;;;0.83;0.83;;;;;19.50;96155.00;;;;5116507;28;20194;-53
2022/08/03 00:21:26;;;;;;;0.67;0.67;;;;;19.40;96156.00;;;;5116409;28;20198;-52
2022/08/03 00:23:52;;;;;;;1.00;1.00;;;;;19.30;96155.00;;;;5116427;28;20714;-53
2022/08/03 00:26:22;;;;;;;0.70;0.70;;;;;19.30;96151.00;;;;5116400;28;20190;-55
2022/08/03 00:28:48;;;;;;;0.40;0.40;;;;;19.40;96151.00;;;;5116245;28;20271;-52
2022/08/03 00:31:16;;;;;;;0.60;0.60;;;;;19.40;96145.00;;;;5116271;28;20370;-52
2022/08/03 00:33:42;;;;;;;0.90;0.70;;;;;19.40;96148.00;;;;5116192;28;20186;-53
2022/08/03 00:36:12;;;;;;;1.33;1.23;;;;;19.30;96149.00;;;;5098462;28;20198;-56
2022/08/03 00:38:39;;;;;;;0.73;0.73;;;;;19.20;96146.00;;;;5098705;28;20297;-53
2022/08/03 00:41:06;;;;;;;0.60;0.60;;;;;19.10;96144.00;;;;5116211;28;20213;-53
2022/08/03 00:43:33;;;;;;;0.77;0.77;;;;;19.20;96149.00;;;;5116210;28;20259;-55
2022/08/03 00:46:02;;;;;;;0.77;0.77;;;;;19.10;96137.00;;;;5116158;28;20264;-54
2022/08/03 00:48:28;;;;;;;0.80;0.80;;;;;19.10;96138.00;;;;5116379;28;20228;-60
2022/08/03 00:50:55;;;;;;;0.60;0.60;;;;;19.00;96139.00;;;;5116180;28;20236;-59
2022/08/03 00:53:23;;;;;;;0.40;0.40;;;;;19.00;96144.00;;;;5116074;28;20194;-52
2022/08/03 00:55:50;;;;;;;0.40;0.40;;;;;18.90;96141.00;;;;5115978;28;20266;-51
2022/08/03 00:58:17;;;;;;;0.60;0.60;;;;;18.90;96135.00;;;;5115543;28;20190;-52
2022/08/03 01:00:44;;;;;;;1.07;1.07;;;;;18.80;96141.00;;;;5115887;28;20190;-51
2022/08/03 01:03:11;;;;;;;5.17;1.47;;;;;18.80;96131.00;;;;5115988;28;20218;-50
2022/08/03 01:05:45;;;;;;;2.63;1.13;;;;;18.80;96126.00;;;;5115858;28;20217;-51
2022/08/03 01:08:21;;;;;;;1.57;1.47;;;;;18.80;96123.00;;;;5115665;28;20281;-51
2022/08/03 01:10:56;;;;;;;1.27;1.17;;;;;18.80;96124.00;;;;5097660;28;20286;-52
2022/08/03 01:13:30;;;;;;;1.37;1.27;;;;;18.70;96127.00;;;;5115591;28;20222;-52
2022/08/03 01:16:07;;;;;;;0.50;0.50;;;;;18.70;96128.00;;;;5115592;28;20267;-52
2022/08/03 01:18:40;;;;;;;0.60;0.60;;;;;18.60;96129.00;;;;5115448;28;20220;-51
2022/08/03 01:21:12;;;;;;;1.23;1.23;;;;;18.60;96119.00;;;;5115566;28;20666;-52
2022/08/03 01:24:06;;;;;;;1.03;1.03;;;;;18.60;96114.00;;;;5115620;28;20202;-53
2022/08/03 01:27:03;;;;;;;0.80;0.80;;;;;18.80;96114.00;;;;5092733;28;20368;-52
2022/08/03 01:29:57;;;;;;;0.70;0.70;;;;;18.60;96111.00;;;;5097613;28;20285;-52
2022/08/03 01:32:30;;;;;;;1.10;1.10;;;;;18.50;96107.00;;;;5115222;28;20260;-52
2022/08/03 01:35:01;;;;;;;0.67;0.67;;;;;18.50;96104.00;;;;5097522;28;20200;-54
2022/08/03 01:37:36;;;;;;;0.90;0.90;;;;;18.40;96106.00;;;;5115363;28;20280;-52
2022/08/03 01:40:04;;;;;;;0.87;0.87;;;;;18.50;96110.00;;;;5115225;28;20205;-52
2022/08/03 01:42:31;;;;;;;1.00;1.00;;;;;18.30;96108.00;;;;5115058;28;20550;-52
2022/08/03 01:45:00;;;;;;;0.57;0.57;;;;;18.30;96107.00;;;;5115156;28;20198;-52
2022/08/03 01:47:29;;;;;;;0.83;0.83;;;;;18.30;96097.00;;;;5115025;28;20225;-52
2022/08/03 01:49:58;;;;;;;0.60;0.60;;;;;18.30;96098.00;;;;5115079;28;20201;-52
2022/08/03 01:52:25;;;;;;;0.60;0.60;;;;;18.30;96104.00;;;;5114898;28;20222;-52
2022/08/03 01:54:57;;;;;;;0.80;0.80;;;;;18.30;96094.00;;;;5115024;28;20194;-54
2022/08/03 01:57:27;;;;;;;0.90;0.90;;;;;18.30;96100.00;;;;5115077;28;20225;-52
2022/08/03 01:59:56;;;;;;;0.83;0.83;;;;;18.20;96092.00;;;;5096933;28;20546;-52
2022/08/03 02:02:27;;;;;;;1.00;1.00;;;;;18.20;96091.00;;;;5114885;28;20198;-52
2022/08/03 02:04:57;;;;;;;1.47;0.93;;;;;18.10;96097.00;;;;5114824;28;20222;-52
2022/08/03 02:07:26;;;;;;;0.80;0.80;;;;;18.10;96096.00;;;;5114795;28;20217;-51
2022/08/03 02:09:54;;;;;;;0.90;0.90;;;;;17.90;96092.00;;;;5113771;28;20214;-52
2022/08/03 02:12:23;;;;;;;0.93;0.93;;;;;18.00;96090.00;;;;5114586;28;20228;-52
2022/08/03 02:14:51;;;;;;;0.93;0.93;;;;;17.90;96092.00;;;;5096673;28;20234;-55
2022/08/03 02:17:19;;;;;;;0.67;0.67;;;;;17.90;96087.00;;;;5114770;28;20198;-53
2022/08/03 02:19:51;;;;;;;0.70;0.70;;;;;17.90;96085.00;;;;5096587;28;20217;-51
2022/08/03 02:22:18;;;;;;;1.00;1.00;;;;;17.80;96088.00;;;;5114649;28;20783;-52
2022/08/03 02:24:45;;;;;;;0.50;0.50;;;;;17.70;96093.00;;;;5114520;28;20280;-53
2022/08/03 02:27:19;;;;;;;0.97;0.97;;;;;17.70;96087.00;;;;5114493;28;20190;-52
2022/08/03 02:29:52;;;;;;;0.73;0.73;;;;;17.60;96085.00;;;;5114437;28;20701;-54
2022/08/03 02:32:23;;;;;;;0.80;0.80;;;;;17.70;96097.00;;;;5114311;28;20661;-54
2022/08/03 02:34:54;;;;;;;0.70;0.70;;;;;17.70;96083.00;;;;5114444;28;20217;-54
2022/08/03 02:37:24;;;;;;;0.53;0.53;;;;;17.60;96090.00;;;;5114422;28;20308;-54
2022/08/03 02:39:58;;;;;;;0.60;0.60;;;;;17.50;96091.00;;;;5114707;28;20693;-54
2022/08/03 02:42:27;;;;;;;0.90;0.90;;;;;17.50;96084.00;;;;5114294;28;20218;-52
2022/08/03 02:44:58;;;;;;;0.87;0.87;;;;;17.60;96081.00;;;;5096602;28;20248;-54
2022/08/03 02:47:28;;;;;;;1.03;1.03;;;;;17.60;96091.00;;;;5114368;28;20186;-54
2022/08/03 02:49:57;;;;;;;0.80;0.80;;;;;17.60;96078.00;;;;5114322;28;20186;-53
2022/08/03 02:52:28;;;;;;;0.60;0.60;;;;;17.60;96075.00;;;;5114149;28;20286;-54
2022/08/03 02:55:03;;;;;;;0.57;0.57;;;;;17.60;96081.00;;;;5114136;28;20226;-53
2022/08/03 02:57:35;;;;;;;1.13;1.13;;;;;17.60;96084.00;;;;5114085;28;20236;-51
2022/08/03 03:00:03;;;;;;;0.80;0.80;;;;;17.60;96081.00;;;;5114138;28;20287;-52
2022/08/03 03:02:33;;;;;;;1.07;1.07;;;;;17.60;96080.00;;;;5114051;28;20197;-52
2022/08/03 03:05:07;;;;;;;0.90;0.90;;;;;17.60;96075.00;;;;5114063;28;20232;-58
2022/08/03 03:07:35;;;;;;;0.80;0.80;;;;;17.50;96072.00;;;;5113969;28;20204;-53
2022/08/03 03:10:02;;;;;;;1.00;1.00;;;;;17.30;96073.00;;;;5113803;28;20634;-53
2022/08/03 03:12:34;;;;;;;0.83;0.83;;;;;17.30;96068.00;;;;5113757;28;20256;-56
2022/08/03 03:15:01;;;;;;;0.90;0.90;;;;;17.30;96071.00;;;;5113649;28;20194;-54
2022/08/03 03:17:32;;;;;;;0.90;0.90;;;;;17.30;96076.00;;;;5113795;28;20202;-51
2022/08/03 03:19:59;;;;;;;0.60;0.60;;;;;17.30;96079.00;;;;5113688;28;20229;-52
2022/08/03 03:22:28;;;;;;;0.90;0.90;;;;;17.10;96071.00;;;;5116112;28;20225;-54
2022/08/03 03:24:55;;;;;;;0.70;0.70;;;;;17.10;96078.00;;;;5117226;28;20235;-52
2022/08/03 03:27:25;;;;;;;0.70;0.70;;;;;17.10;96073.00;;;;5117219;28;20201;-59
2022/08/03 03:29:52;;;;;;;1.03;1.03;;;;;17.10;96071.00;;;;5117131;28;20196;-54
2022/08/03 03:32:19;;;;;;;0.70;0.70;;;;;17.10;96071.00;;;;5117153;28;20241;-52
2022/08/03 03:34:47;;;;;;;0.67;0.67;;;;;17.20;96074.00;;;;5099112;28;20263;-53
2022/08/03 03:37:14;;;;;;;0.73;0.73;;;;;17.30;96074.00;;;;5099343;28;20542;-53
2022/08/03 03:39:41;;;;;;;1.17;1.17;;;;;17.40;96071.00;;;;5117037;28;20186;-53
2022/08/03 03:42:10;;;;;;;0.57;0.57;;;;;17.30;96070.00;;;;5116885;28;20233;-53
2022/08/03 03:44:37;;;;;;;0.93;0.80;;;;;17.10;96063.00;;;;5116870;28;20205;-51
2022/08/03 03:47:04;;;;;;;0.53;0.53;;;;;17.10;96067.00;;;;5116737;28;20222;-50
2022/08/03 03:49:31;;;;;;;1.03;1.03;;;;;17.20;96066.00;;;;5116973;28;20193;-51
2022/08/03 03:51:58;;;;;;;0.80;0.80;;;;;17.20;96064.00;;;;5098905;28;20301;-51
2022/08/03 03:54:25;;;;;;;0.93;0.93;;;;;17.20;96070.00;;;;5116868;28;20266;-52
2022/08/03 03:56:53;;;;;;;0.70;0.70;;;;;17.10;96065.00;;;;5116596;28;20213;-51
2022/08/03 03:59:19;;;;;;;0.53;0.53;;;;;17.00;96073.00;;;;5098633;28;20537;-52
2022/08/03 04:01:46;;;;;;;0.47;0.47;;;;;17.10;96070.00;;;;5116520;28;20681;-51
2022/08/03 04:12:31;;;;;;;0.90;0.90;;;;;16.90;96066.00;;;;5116360;28;20237;-51
2022/08/03 04:15:00;;;;;;;1.00;1.00;;;;;16.90;96071.00;;;;5116602;28;20206;-52
2022/08/03 04:17:29;;;;;;;0.77;0.77;;;;;16.90;96070.00;;;;5116386;28;20218;-52
2022/08/03 04:19:58;;;;;;;0.93;0.93;;;;;16.90;96077.00;;;;5116476;28;20202;-52
2022/08/03 04:22:31;;;;;;;0.70;0.70;;;;;16.90;96078.00;;;;5116478;28;20547;-52
2022/08/03 04:25:02;;;;;;;0.70;0.70;;;;;17.10;96078.00;;;;5116554;28;20294;-52
2022/08/03 04:27:34;;;;;;;0.73;0.70;;;;;17.20;96076.00;;;;5116350;28;20286;-52
2022/08/03 04:30:04;;;;;;;0.97;0.97;;;;;17.20;96078.00;;;;5116535;28;20609;-52
2022/08/03 04:32:31;;;;;;;0.73;0.73;;;;;17.20;96081.00;;;;5115841;28;20221;-52
2022/08/03 04:34:59;;;;;;;0.63;0.63;;;;;17.20;96076.00;;;;5116357;28;20201;-54
2022/08/03 04:37:34;;;;;;;0.90;0.90;;;;;17.30;96081.00;;;;5116418;28;20653;-55
2022/08/03 04:40:05;;;;;;;0.80;0.80;;;;;17.40;96085.00;;;;5116414;28;20656;-51
2022/08/03 04:42:35;;;;;;;0.60;0.60;;;;;17.40;96091.00;;;;5116101;28;20225;-52
2022/08/03 04:45:04;;;;;;;0.90;0.90;;;;;17.30;96091.00;;;;5116044;28;20221;-52
2022/08/03 04:47:33;;;;;;;1.70;1.60;;;;;17.30;96096.00;;;;5115905;28;20690;-53
2022/08/03 04:50:01;;;;;;;1.17;1.17;;;;;17.30;96086.00;;;;5116054;28;20205;-53
2022/08/03 04:52:28;;;;;;;0.90;0.90;;;;;17.20;96101.00;;;;5115909;28;20221;-54
2022/08/03 04:54:55;;;;;;;0.80;0.80;;;;;17.20;96092.00;;;;5098413;28;20548;-59
2022/08/03 04:57:22;;;;;;;0.67;0.67;;;;;17.30;96100.00;;;;5116103;28;20275;-57
2022/08/03 04:59:53;;;;;;;1.00;1.00;;;;;17.30;96099.00;;;;5116139;28;20194;-56
2022/08/03 05:02:23;;;;;;;0.90;0.90;;;;;17.40;96097.00;;;;5097957;28;20274;-52
2022/08/03 05:04:49;;;;;;;0.60;0.60;;;;;17.50;96097.00;;;;5115878;28;20194;-52
2022/08/03 05:07:19;;;;;;;1.00;1.00;;;;;17.60;96099.00;;;;5115666;28;20222;-53
2022/08/03 05:09:46;;;;;;;1.67;1.57;;;;;17.60;96099.00;;;;5115872;28;20387;-52
2022/08/03 05:12:13;;;;;;;0.70;0.70;;;;;17.80;96102.00;;;;5115669;28;20222;-53
2022/08/03 05:14:40;;;;;;;2.87;1.43;;;;;17.80;96090.00;;;;5115680;28;20197;-57
2022/08/03 05:17:08;;;;;;;1.10;1.00;;;;;17.90;96097.00;;;;5115548;28;20190;-53
2022/08/03 05:19:35;;;;;;;0.60;0.60;;;;;17.90;96103.00;;;;5115540;28;20179;-52
2022/08/03 05:22:02;;;;;;;1.37;1.27;;;;;17.90;96102.00;;;;5115607;28;20252;-53
2022/08/03 05:24:29;;;;;;;0.67;0.67;;;;;18.00;96111.00;;;;5115417;28;20218;-52
2022/08/03 05:26:56;;;;;;;0.70;0.70;;;;;18.00;96102.00;;;;5115446;28;20281;-52
2022/08/03 05:29:25;;;;;;;0.50;0.50;;;;;18.00;96099.00;;;;5115407;28;20234;-52
2022/08/03 05:31:54;;;;;;;0.77;0.77;;;;;18.10;96100.00;;;;5115305;28;20222;-52
2022/08/03 05:34:22;;;;;;;0.93;0.93;;;;;18.10;96097.00;;;;5115282;28;20637;-52
2022/08/03 05:36:49;;;;;;;0.63;0.63;;;;;18.20;96100.00;;;;5115376;28;20202;-52
2022/08/03 05:39:15;;;;;;;1.23;1.23;;;;;18.30;96100.00;;;;5115312;28;20190;-51
2022/08/03 05:41:42;;;;;;;1.03;1.03;;;;;18.40;96100.00;;;;5097212;28;20205;-53
2022/08/03 05:44:09;;;;;;;0.70;0.70;;;;;18.40;96098.00;;;;5097140;28;20212;-54
2022/08/03 05:46:36;;;;;;;0.67;0.67;;;;;18.50;96101.00;;;;5115285;28;20628;-53
2022/08/03 05:49:03;;;;;;;0.87;0.70;;;;;18.50;96099.00;;;;5115103;28;20292;-53
2022/08/03 05:51:31;;;;;;;1.13;1.13;;;;;18.60;96098.00;;;;5114802;28;20244;-53
2022/08/03 05:53:58;;;;;;;0.97;0.97;;;;;18.60;96103.00;;;;5114902;28;20198;-52
2022/08/03 05:56:25;;;;;;;0.83;0.83;;;;;18.70;96097.00;;;;5114879;28;20191;-54
2022/08/03 05:58:52;;;;;;;0.70;0.70;;;;;18.60;96098.00;;;;5114799;28;20255;-53
2022/08/03 06:01:21;;;;;;;1.10;1.10;;;;;18.70;96103.00;;;;5114800;28;20197;-52
2022/08/03 06:03:48;;;;;;;0.67;0.67;;;;;18.80;96104.00;;;;5114749;28;20256;-54
2022/08/03 06:06:15;;;;;;;0.70;0.70;;;;;18.90;96103.00;;;;5114742;28;20262;-53
2022/08/03 06:08:45;;;;;;;0.90;0.90;;;;;19.10;96103.00;;;;5114665;28;20209;-52
2022/08/03 06:11:12;;;;;;;1.10;1.10;;;;;19.20;96097.00;;;;5114557;28;20252;-52
2022/08/03 06:13:39;;;;;;;0.63;0.63;;;;;19.40;96106.00;;;;5114699;28;20186;-52
2022/08/03 06:16:07;;;;;;;0.70;0.70;;;;;19.40;96105.00;;;;5114564;28;20301;-53
2022/08/03 06:18:34;;;;;;;0.63;0.63;;;;;19.50;96099.00;;;;5114645;28;20268;-53
2022/08/03 06:21:01;;;;;;;0.50;0.50;;;;;19.60;96099.00;;;;5114620;28;20278;-53
2022/08/03 06:23:28;;;;;;;0.63;0.63;;;;;19.80;96096.00;;;;5114585;28;20225;-52
2022/08/03 06:25:56;;;;;;;0.70;0.70;;;;;19.90;96097.00;;;;5114472;28;20197;-53
2022/08/03 06:28:22;;;;;;;1.07;1.07;;;;;20.00;96095.00;;;;5114550;28;20197;-53
2022/08/03 06:30:52;;;;;;;0.80;0.80;;;;;20.20;96093.00;;;;5114364;28;20205;-52
2022/08/03 06:33:19;;;;;;;0.60;0.60;;;;;20.30;96098.00;;;;5114264;28;20234;-52
2022/08/03 06:35:48;;;;;;;1.20;1.20;;;;;20.40;96101.00;;;;5114345;28;20644;-54
2022/08/03 06:38:15;;;;;;;0.80;0.80;;;;;20.40;96092.00;;;;5114444;28;20578;-54
2022/08/03 06:40:42;;;;;;;0.50;0.50;;;;;20.40;96094.00;;;;5114472;28;20213;-57
2022/08/03 06:43:09;;;;;;;0.70;0.70;;;;;20.50;96085.00;;;;5096300;28;20198;-55
2022/08/03 06:45:36;;;;;;;0.70;0.70;;;;;20.60;96103.00;;;;5114155;28;20276;-53
2022/08/03 06:48:05;;;;;;;0.97;0.97;;;;;20.80;96107.00;;;;5096070;28;20307;-53
2022/08/03 06:50:33;;;;;;;1.17;1.00;;;;;20.90;96096.00;;;;5113929;28;20300;-52
2022/08/03 06:53:03;;;;;;;0.50;0.50;;;;;21.00;96100.00;;;;5114052;28;20232;-52
2022/08/03 06:55:30;;;;;;;0.60;0.60;;;;;21.20;96103.00;;;;5113621;28;20218;-52
2022/08/03 06:57:57;;;;;;;0.80;0.80;;;;;21.30;96101.00;;;;5095866;28;20204;-54
2022/08/03 07:00:25;;;;;;;0.70;0.70;;;;;21.40;96104.00;;;;5114353;28;20190;-51
2022/08/03 07:02:52;;;;;;;0.50;0.50;;;;;21.50;96109.00;;;;5113936;28;20194;-51
2022/08/03 07:05:19;;;;;;;0.90;0.87;;;;;21.70;96113.00;;;;5095927;28;20249;-52
2022/08/03 07:07:46;;;;;;;0.77;0.77;;;;;21.90;96123.00;;;;5113833;28;20281;-53
2022/08/03 07:10:15;;;;;;;0.65;0.65;;;;;21.90;96117.00;;;;5113903;28;20632;-54
2022/08/03 07:12:46;;;;;;;0.77;0.77;;;;;22.00;96115.00;;;;5113772;28;20229;-54
2022/08/03 07:15:13;;;;;;;0.57;0.57;;;;;22.20;96106.00;;;;5113899;28;20228;-55
2022/08/03 07:17:40;;;;;;;0.65;0.65;;;;;22.40;96104.00;;;;5113941;28;20677;-55
2022/08/03 07:20:08;;;;;;;0.57;0.57;;;;;22.50;96106.00;;;;5113984;28;20222;-55
2022/08/03 07:22:35;;;;;;;0.40;0.40;;;;;22.70;96108.00;;;;5114052;28;20225;-59
2022/08/03 07:25:03;;;;;;;0.93;0.93;;;;;22.80;96109.00;;;;5114045;28;20386;-54
2022/08/03 07:27:31;;;;;;;0.80;0.75;;;;;23.00;96105.00;;;;5114009;28;20198;-60
2022/08/03 07:29:58;;;;;;;0.55;0.55;;;;;23.00;96099.00;;;;5113863;28;20218;-57
2022/08/03 07:32:25;;;;;;;0.57;0.57;;;;;23.20;96114.00;;;;5114064;28;20221;-61
2022/08/03 07:34:53;;;;;;;0.30;0.30;;;;;23.30;96108.00;;;;5114118;28;20198;-56
2022/08/03 07:37:20;;;;;;;0.80;0.80;;;;;23.60;96107.00;;;;5113926;28;20247;-56
2022/08/03 07:39:47;;;;;;;0.70;0.70;;;;;23.70;96109.00;;;;5096237;28;20201;-55
2022/08/03 07:42:14;;;;;;;0.50;0.50;;;;;23.80;96112.00;;;;5114194;28;20371;-60
2022/08/03 07:44:41;;;;;;;0.60;0.60;;;;;24.00;96106.00;;;;5113807;28;20190;-55
2022/08/03 07:47:08;;;;;;;0.63;0.63;;;;;24.30;96113.00;;;;5113636;28;20218;-52
2022/08/03 07:49:40;;;;;;;0.40;0.40;;;;;24.30;96112.00;;;;5113667;28;20205;-53
2022/08/03 07:54:52;;;;;;;0.40;0.40;;;;;24.50;96114.00;;;;5113555;28;20181;-53
2022/08/03 07:57:19;;;;;;;0.98;0.98;;;;;24.60;96107.00;;;;5113376;28;20222;-53
2022/08/03 07:59:46;;;;;;;0.60;0.60;;;;;24.70;96110.00;;;;5113218;28;20222;-54
2022/08/03 08:02:15;;;;;;;0.50;0.50;;;;;25.10;96107.00;;;;5113198;28;20645;-59
2022/08/03 08:04:42;;;;;;;0.98;0.85;;;;;25.10;96106.00;;;;5113084;28;20217;-53
2022/08/03 08:07:10;;;;;;;0.50;0.50;;;;;25.20;96103.00;;;;5113209;28;20704;-53
2022/08/03 08:09:37;;;;;;;1.70;0.75;;;;;25.30;96106.00;;;;5115868;28;20186;-53
2022/08/03 08:12:06;;;;;;;0.40;0.40;;;;;25.40;96103.00;;;;5116625;28;20214;-50
2022/08/03 08:14:33;;;;;;;0.50;0.50;;;;;25.40;96105.00;;;;5116614;28;20224;-52
2022/08/03 08:17:03;;;;;;;0.63;0.63;;;;;25.50;96100.00;;;;5116473;28;20278;-50
2022/08/03 08:19:30;;;;;;;0.52;0.52;;;;;25.60;96088.00;;;;5116519;28;20201;-51
2022/08/03 08:21:56;;;;;;;0.52;0.52;;;;;26.00;96104.00;;;;5098335;28;20240;-52
2022/08/03 08:24:24;;;;;;;0.50;0.50;;;;;25.90;96097.00;;;;5116420;28;20296;-51
2022/08/03 08:26:51;;;;;;;1.20;0.95;;;;;26.00;96099.00;;;;5116338;28;20190;-51
2022/08/03 08:29:21;;;;;;;0.52;0.52;;;;;26.20;96098.00;;;;5116650;28;20284;-51
2022/08/03 08:31:49;;;;;;;0.70;0.70;;;;;26.10;96099.00;;;;5116362;28;20214;-56
2022/08/03 08:34:16;;;;;;;1.38;1.13;;;;;26.20;96098.00;;;;5116266;28;20258;-52
2022/08/03 08:36:42;;;;;;;0.40;0.40;;;;;26.60;96099.00;;;;5116210;28;20229;-52
2022/08/03 08:39:11;;;;;;;0.50;0.50;;;;;26.60;96099.00;;;;5116180;28;20218;-52
2022/08/03 08:41:39;;;;;;;0.40;0.40;;;;;26.80;96099.00;;;;5116225;28;20285;-51
2022/08/03 08:44:09;;;;;;;0.60;0.60;;;;;26.80;96109.00;;;;5116062;28;20685;-51
2022/08/03 08:46:38;;;;;;;0.95;0.95;;;;;26.90;96104.00;;;;5116082;28;20186;-52
2022/08/03 08:49:08;;;;;;;0.50;0.50;;;;;26.90;96108.00;;;;5115975;28;20202;-51
2022/08/03 08:51:42;;;;;;;0.50;0.50;;;;;26.80;96108.00;;;;5115981;28;20254;-53
2022/08/03 08:54:10;;;;;;;0.57;0.57;;;;;27.00;96102.00;;;;5116258;28;20239;-59
2022/08/03 08:56:37;;;;;;;1.20;0.80;;;;;27.10;96101.00;;;;5098003;28;20218;-54
2022/08/03 08:59:05;;;;;;;0.80;0.80;;;;;27.20;96095.00;;;;5098058;28;20198;-57
2022/08/03 09:01:32;;;;;;;0.60;0.60;;;;;27.20;96099.00;;;;5115858;28;20221;-51
2022/08/03 09:03:59;;;;;;;0.70;0.70;;;;;27.20;96097.00;;;;5115850;28;20198;-51
2022/08/03 09:06:28;;;;;;;0.60;0.60;;;;;27.20;96095.00;;;;5098028;28;20198;-51
2022/08/03 09:08:55;;;;;;;0.40;0.40;;;;;27.50;96105.00;;;;5115752;28;20289;-51
2022/08/03 09:11:22;;;;;;;0.40;0.40;;;;;27.50;96105.00;;;;5115702;28;20259;-52
2022/08/03 09:13:49;;;;;;;1.30;1.17;;;;;27.70;96104.00;;;;5115562;28;20228;-51
2022/08/03 09:16:18;;;;;;;0.50;0.50;;;;;27.70;96104.00;;;;5115589;28;20232;-51
2022/08/03 09:18:47;;;;;;;0.57;0.57;;;;;27.60;96102.00;;;;5115152;28;20301;-51
2022/08/03 09:21:16;;;;;;;0.60;0.60;;;;;27.60;96104.00;;;;5097588;28;20198;-51
2022/08/03 09:23:48;;;;;;;0.47;0.47;;;;;27.70;96098.00;;;;5115555;28;20194;-51
2022/08/03 09:26:23;;;;;;;0.65;0.65;;;;;28.00;96099.00;;;;5115485;28;20478;-51
2022/08/03 09:28:58;;;;;;;0.80;0.80;;;;;28.20;96097.00;;;;5115467;28;20193;-51
2022/08/03 09:31:33;;;;;;;0.68;0.68;;;;;28.20;96099.00;;;;5115278;28;20232;-51
2022/08/03 09:34:04;;;;;;;0.55;0.55;;;;;28.00;96104.00;;;;5115416;28;20641;-51
2022/08/03 09:36:36;;;;;;;0.50;0.50;;;;;28.10;96106.00;;;;5115275;28;20287;-51
2022/08/03 09:39:05;;;;;;;0.65;0.65;;;;;28.10;96091.00;;;;5115380;28;20208;-51
2022/08/03 09:41:32;;;;;;;0.50;0.50;;;;;28.10;96100.00;;;;5115035;28;20190;-51
2022/08/03 09:43:59;;;;;;;0.65;0.65;;;;;28.20;96090.00;;;;5097278;28;20225;-53
2022/08/03 09:46:30;;;;;;;0.52;0.52;;;;;28.10;96090.00;;;;5097071;28;20281;-51
2022/08/03 09:49:13;;;;;;;0.80;0.80;;;;;28.50;96094.00;;;;5114996;28;20653;-51
2022/08/03 09:51:40;;;;;;;0.60;0.60;;;;;28.50;96102.00;;;;5114981;28;20226;-53
2022/08/03 09:54:09;;;;;;;0.60;0.60;;;;;28.50;96103.00;;;;5096976;28;20218;-53
2022/08/03 09:56:41;;;;;;;0.40;0.40;;;;;28.60;96092.00;;;;5115060;28;20205;-51
2022/08/03 09:59:10;;;;;;;0.95;0.95;;;;;28.60;96091.00;;;;5115039;28;20217;-51
2022/08/03 10:01:40;;;;;;;0.50;0.50;;;;;28.60;96092.00;;;;5114968;28;20255;-53
2022/08/03 10:04:16;;;;;;;0.60;0.60;;;;;28.70;96094.00;;;;5114877;28;20191;-51
2022/08/03 10:06:44;;;;;;;0.50;0.50;;;;;28.80;96093.00;;;;5114892;28;20185;-51
2022/08/03 10:09:13;;;;;;;0.50;0.50;;;;;29.10;96096.00;;;;5097124;28;20205;-52
2022/08/03 10:11:41;;;;;;;0.70;0.70;;;;;29.20;96087.00;;;;5114757;28;20222;-51
2022/08/03 10:14:17;;;;;;;0.60;0.60;;;;;29.00;96085.00;;;;5096706;28;20194;-53
2022/08/03 10:16:45;;;;;;;0.60;0.60;;;;;29.00;96085.00;;;;5114736;28;20656;-51
2022/08/03 10:19:14;;;;;;;0.40;0.40;;;;;29.00;96079.00;;;;5114750;28;20212;-54
2022/08/03 10:21:45;;;;;;;0.43;0.43;;;;;28.90;96077.00;;;;5114556;28;20194;-53
2022/08/03 10:24:16;;;;;;;0.57;0.57;;;;;29.00;96077.00;;;;5114602;28;20604;-54
2022/08/03 10:26:45;;;;;;;0.68;0.68;;;;;29.10;96078.00;;;;5114671;28;20280;-52
2022/08/03 10:29:19;;;;;;;0.70;0.70;;;;;29.40;96070.00;;;;5096522;28;20285;-52
2022/08/03 10:31:47;;;;;;;0.55;0.55;;;;;29.30;96072.00;;;;5113608;28;20243;-53
2022/08/03 10:34:18;;;;;;;0.40;0.40;;;;;29.50;96062.00;;;;5114385;28;20260;-53
2022/08/03 10:36:46;;;;;;;1.27;1.17;;;;;29.70;96059.00;;;;5114391;28;20216;-52
2022/08/03 10:39:17;;;;;;;0.52;0.52;;;;;29.90;96057.00;;;;5114368;28;20657;-52
2022/08/03 10:41:46;;;;;;;0.85;0.85;;;;;30.00;96062.00;;;;5096452;28;20304;-52
2022/08/03 10:44:17;;;;;;;0.70;0.70;;;;;30.20;96057.00;;;;5114247;28;20217;-51
2022/08/03 10:46:46;;;;;;;0.45;0.45;;;;;30.30;96056.00;;;;5114303;28;20228;-51
2022/08/03 10:49:15;;;;;;;0.65;0.65;;;;;30.20;96051.00;;;;5114363;28;20266;-51
2022/08/03 10:51:44;;;;;;;0.63;0.63;;;;;30.30;96045.00;;;;5096115;28;20313;-51
2022/08/03 10:57:33;;;;;;;2.90;0.93;;;;;30.40;96053.00;;;;5114097;28;20240;-51
2022/08/03 10:57:44;;;;;;;0.50;0.50;;;;;30.60;96059.00;;;;5114045;28;20225;-52
2022/08/03 11:00:13;;;;;;;0.80;0.80;;;;;30.50;96042.00;;;;5114189;28;20201;-55
2022/08/03 11:03:05;;;;;;;0.75;0.75;;;;;30.40;96040.00;;;;5114016;28;20245;-53
2022/08/03 11:05:35;;;;;;;0.50;0.50;;;;;30.70;96050.00;;;;5114119;28;20252;-53
2022/08/03 11:08:26;;;;;;;0.60;0.60;;;;;30.80;96046.00;;;;5095949;28;20313;-53
2022/08/03 11:10:55;;;;;;;0.80;0.80;;;;;30.80;96041.00;;;;5114151;28;20237;-53
2022/08/03 11:13:24;;;;;;;0.60;0.60;;;;;30.90;96036.00;;;;5113731;28;20244;-53
2022/08/03 11:15:53;;;;;;;0.68;0.68;;;;;31.20;96036.00;;;;5095995;28;20205;-58
2022/08/03 11:18:22;;;;;;;0.50;0.50;;;;;31.10;96029.00;;;;5113913;28;20197;-54
2022/08/03 11:20:52;;;;;;;0.60;0.60;;;;;31.30;96028.00;;;;5113859;28;20205;-55
2022/08/03 11:23:39;;;;;;;1.17;1.08;;;;;31.40;96031.00;;;;5113781;28;20208;-58
2022/08/03 11:26:16;;;;;;;0.50;0.50;;;;;31.30;96029.00;;;;5113730;28;20676;-56
2022/08/03 11:28:45;;;;;;;0.60;0.60;;;;;31.70;96030.00;;;;5095816;28;20617;-54
2022/08/03 11:31:43;;;;;;;1.52;1.42;;;;;31.60;96025.00;;;;5113534;28;20214;-54
2022/08/03 11:34:11;;;;;;;0.65;0.65;;;;;31.70;96024.00;;;;5113647;28;20208;-54
2022/08/03 11:37:20;;;;;;;0.60;0.60;;;;;31.80;96024.00;;;;5113615;28;20221;-54
2022/08/03 11:39:48;;;;;;;0.70;0.70;;;;;31.70;96012.00;;;;5113459;28;20194;-53
2022/08/03 11:42:38;;;;;;;0.70;0.70;;;;;31.80;96016.00;;;;5114371;28;20218;-54
2022/08/03 11:45:08;;;;;;;0.65;0.65;;;;;32.20;96017.00;;;;5117155;28;20190;-54
2022/08/03 11:47:38;;;;;;;0.70;0.70;;;;;32.30;96017.00;;;;5117187;28;20205;-54
2022/08/03 11:50:06;;;;;;;4.45;1.33;;;;;32.30;96013.00;;;;5099193;28;20206;-55
2022/08/03 11:52:39;;;;;;;0.80;0.80;;;;;32.50;96003.00;;;;5117182;28;20218;-55
2022/08/03 11:55:12;;;;;;;1.00;1.00;;;;;32.60;96006.00;;;;5117103;28;20241;-56
2022/08/03 11:57:42;;;;;;;0.60;0.60;;;;;32.70;96003.00;;;;5099097;28;20580;-54
2022/08/03 12:00:28;;;;;;;0.70;0.70;;;;;32.50;96001.00;;;;5116955;28;20289;-55
2022/08/03 12:03:00;;;;;;;0.60;0.60;;;;;33.00;95995.00;;;;5116263;28;20213;-56
2022/08/03 12:05:38;;;;;;;0.65;0.65;;;;;32.70;95993.00;;;;5099019;28;20312;-54
2022/08/03 12:08:06;;;;;;;0.82;0.82;;;;;33.20;95993.00;;;;5116783;28;20194;-54
2022/08/03 12:10:34;;;;;;;0.60;0.60;;;;;33.10;95992.00;;;;5116644;28;20186;-55
2022/08/03 12:13:04;;;;;;;0.80;0.80;;;;;33.00;95995.00;;;;5116701;28;20294;-60
2022/08/03 12:15:33;;;;;;;0.68;0.68;;;;;32.90;95984.00;;;;5116921;28;20212;-57
2022/08/03 12:18:00;;;;;;;0.85;0.85;;;;;32.60;95980.00;;;;5116908;28;20225;-55
2022/08/03 12:20:30;;;;;;;0.85;0.85;;;;;32.70;95986.00;;;;5116699;28;20183;-56
2022/08/03 12:23:04;;;;;;;0.80;0.80;;;;;33.00;95992.00;;;;5116759;28;20256;-55
2022/08/03 12:25:35;;;;;;;0.70;0.70;;;;;33.00;95990.00;;;;5116951;28;20197;-55
2022/08/03 12:28:15;;;;;;;0.70;0.70;;;;;33.10;95982.00;;;;5099475;28;20549;-54
2022/08/03 12:30:44;;;;;;;0.60;0.60;;;;;33.20;95982.00;;;;5117190;28;20219;-54
2022/08/03 12:33:15;;;;;;;0.65;0.65;;;;;33.40;95973.00;;;;5098762;28;20720;-56
2022/08/03 12:35:42;;;;;;;0.68;0.68;;;;;33.70;95977.00;;;;5116706;28;20277;-59
2022/08/03 12:38:10;;;;;;;0.60;0.60;;;;;33.70;95978.00;;;;5116593;28;20200;-60
2022/08/03 12:40:37;;;;;;;0.70;0.70;;;;;33.70;95974.00;;;;5116440;28;20574;-55
2022/08/03 12:43:12;;;;;;;0.70;0.70;;;;;33.70;95964.00;;;;5116336;28;20205;-55